Hesperia, CA

12:06 PM PDT on May 03, 2015 (GMT -0700)
Palmdale - Butte | | Change Station
CLOSE
Current Station
Airport
Location: Palmdale - Butte,
Elevation: 3028 ft
Nearby Weather Stations

Elev 3028 ft 34.57 °N, 117.67 °W | Updated 11 minutes ago

Clear
Clear
79 °F
Feels Like 79 °F
N
15
Wind Variable Wind from West
Gusts 28 mph

Today
High -- | Low -- °F
--% Chance of Precip.
Yesterday
High -- | Low -- °F
Precip. -- in
5:57 AM 7:35 PM
Full, 100% visible
Pressure 29.80 in
Visibility 10.0 miles
Clouds Clear
Dew Point 23 °F
Humidity 13%
Rainfall 0.00 in
Snow Depth Not available.
UV 12 out of 12
Pollen 4.90 out of 12
Air Quality Not available.
Flu Activity Sporadic
METAR KGXA 031855Z AUTO 27013G24KT 10SM CLR 26/M05 A2990 RMK AO2 SLP091 T02591052 TSNO $

More Conditions Fewer Conditions

Pressure 29.80 in
Visibility 10.0 miles
Clouds Clear
Dew Point 23 °F
Humidity 13%
Rainfall 0.00 in
Snow Depth Not available.
UV 12 out of 12
Pollen 4.90 out of 12
Air Quality Not available.
Flu Activity Sporadic
METAR KGXA 031855Z AUTO 27013G24KT 10SM CLR 26/M05 A2990 RMK AO2 SLP091 T02591052 TSNO $

More Conditions Fewer Conditions

Nepal has a long way to go to dig out and rebuild from a devastating earthquake. We have teamed up with several charities and organizations to make contributing to the relief effort as easy as possible.
How you can help: Portlight Strategies | Red Cross

10-Day Weather Forecast

Almanac

Astronomy

May. 03, 2015 Rise Set
Actual Time
Civil Twilight
Nautical Twilight
Astronomical Twilight
Moon
Length of Visible Light
Length of Day
Tomorrow will be .
, % of the Moon is Illuminated

Today's Extremes

State Highs State Lows

Community

WunderPhotos

Upload Photos

1,818,341 photos uploaded!

WunderBlogs® & News

Nearby

Air Quality

  Air Quality AQ Index Pollutant
Not available.

Snow Depth

Station Depth Elevation

Earthquake Activity

City Distance Mag. Time & Date
Minimum magnitude displayed is 2.5.

Coastal Water Temperatures

Place Temperature

Stations

Nearby Weather Stations

Station Location Temp. Windchill Dew Point Humidity Wind Precip. Elev Updated Type